AirNav   Air Wisconsin pilot careers
 
 891 users online  

81NE Bunger Field Airport
Hildreth, Nebraska, USA

GOING TO HILDRETH?


FAA INFORMATION EFFECTIVE 23 MAY 2019

Location

FAA Identifier: 81NE
Lat/Long: 40-16-25.0450N / 099-00-28.3020W
40-16.417417N / 099-00.471700W
40.2736236 / -99.0078617
(estimated)
Elevation: 2170 ft. / 661 m (estimated)
Variation: 08E (1985)
From city: 4 miles SE of HILDRETH, NE
Time zone: UTC -5 (UTC -6 during Standard Time)
Zip code: 68981

Airport Operations

Airport use: Private use. Permission required prior to landing
Activation date: 02/1987
Control tower: no
ARTCC: MINNEAPOLIS CENTER
FSS: COLUMBUS FLIGHT SERVICE STATION
Attendance: UNATNDD
Wind indicator: yes
Segmented circle: no

Airport Communications

WX AWOS-3 at HDE (18 nm NW): 121.325 (308-995-6433)

Nearby radio navigation aids

VOR radial/distance  VOR name  Freq  Var
EARr170/(27.1)KEARNEY VOR111.2010E
HSIr226/33.0HASTINGS VOR/DME108.8007E

Airport Services

Runway Information

Runway N/S

Dimensions: 2182 x 150 ft. / 665 x 46 m
Surface: turf
RUNWAY N  RUNWAY S
Traffic pattern: leftleft
Obstructions: none50 ft. trees

Airport Ownership and Management from official FAA records

Ownership: Privately-owned
Owner: WILLIAM D BUNGER
P O BOX 111
HILDRETH, NE 68947
Phone 308-938-2626

Instrument Procedures

There are no published instrument procedures at 81NE.

Some nearby airports with instrument procedures:

0V3 - Pioneer Village Field Airport (15 nm N)
4D9 - Alma Municipal Airport (18 nm SW)
KHDE - Brewster Field Airport (18 nm NW)
7V7 - Red Cloud Municipal Airport (24 nm SE)
KEAR - Kearney Regional Airport (27 nm N)
 
Loc | Ops | Rwys | IFR | FBO | Links
Com | Nav | Svcs | Stats | Notes

Silverhawk Aviation, Inc.
AirBoss

 
Area around 81NE (Bunger Field Airport)
 
Road maps at: MapQuest Bing Google
 
Aerial photo
No photo
 
Sectional chart

 
Airport distance calculator
Flying to Bunger Field Airport? Find the distance to fly.

From to 81NE

Sunrise and sunset
Times for 16-Jun-2019
 Local
(UTC-5)
 Zulu
(UTC)
Morning civil twilight05:3410:34
Sunrise06:0711:07
Sunset21:0702:07
Evening civil twilight21:4002:40

Current date and time
Zulu (UTC)  16-Jun-2019 21:51:55
Local (UTC-5)  16-Jun-2019 16:51:55
 
METAR
KHDE 
18nm NW 
162135Z AUTO 00000KT 10SM SCT120 27/11 A2991 RMK AO2 T02680113
KEAR 
27nm N 
162056Z AUTO 35007KT 10SM CLR 28/11 A2992 RMK AO2 SLP115 T02830106 58015
KHSI 
33nm NE 
162053Z AUTO 03010G15KT 10SM CLR 29/12 A2992 RMK AO2 SLP115 T02890117 56014
TAF
KEAR 
27nm N 
161742Z 1618/1718 VRB05KT P6SM FEW200 FM162000 VRB05KT P6SM FEW050 SCT150 FM171200 VRB03KT P6SM BKN100
NOTAMs
Click for the latest NOTAMs
NOTAMs are issued by the DoD/FAA and will open in a separate window not controlled by AirNav.

 

 
 

Would you like to see your business listed on this page?

 If your business provides an interesting product or service to pilots, flight crews, aircraft, or users of the Bunger Field Airport, you should consider listing it here.  To start the listing process, click on the button below
 
Add a business
 

Other Pages about Bunger Field Airport

Update a link
 
Copyright © AirNav, LLC. All rights reserved. Privacy Policy  Contact